Time;durP1;ratioP1;P1;durP2;ratioP2;P2;SDS_P1;SDS_P2;PMS_P1;PMS_P2;Temp;Humidity;BMP_temperature;BMP_pressure;BME280_temperature;BME280_humidity;BME280_pressure;Samples;Min_cycle;Max_cycle;Signal;HPM_P1;HPM_P2
2023/05/14 00:00:50;;;;;;;13.32;11.48;;;12.60;99.90;;;;;;5012662;28;20084;-78
2023/05/14 00:03:16;;;;;;;19.05;11.63;;;12.60;99.90;;;;;;5012692;28;20091;-80
2023/05/14 00:05:42;;;;;;;16.50;11.95;;;12.60;99.90;;;;;;5012630;28;20056;-79
2023/05/14 00:08:08;;;;;;;16.73;11.95;;;12.60;99.90;;;;;;5014225;28;20057;-80
2023/05/14 00:10:34;;;;;;;18.58;11.20;;;12.60;99.90;;;;;;4983420;28;20103;-80
2023/05/14 00:13:00;;;;;;;18.58;11.10;;;12.50;99.90;;;;;;4999785;28;20041;-80
2023/05/14 00:15:25;;;;;;;13.60;11.43;;;12.60;99.90;;;;;;5016976;28;20057;-80
2023/05/14 00:17:51;;;;;;;13.48;11.73;;;12.60;99.90;;;;;;4999365;28;20046;-79
2023/05/14 00:20:17;;;;;;;17.27;10.95;;;12.60;99.90;;;;;;5016107;28;20128;-80
2023/05/14 00:22:42;;;;;;;15.50;10.70;;;12.60;99.90;;;;;;5016452;28;20042;-80
2023/05/14 00:25:08;;;;;;;15.50;11.85;;;12.60;99.90;;;;;;4999634;28;20463;-79
2023/05/14 00:27:36;;;;;;;14.57;11.38;;;12.60;99.90;;;;;;4999008;28;20057;-79
2023/05/14 00:30:04;;;;;;;16.55;11.65;;;12.60;99.90;;;;;;4999293;28;20061;-78
2023/05/14 00:32:30;;;;;;;12.50;10.05;;;12.60;99.90;;;;;;5016262;28;20046;-79
2023/05/14 00:34:56;;;;;;;14.05;11.27;;;12.60;99.90;;;;;;4982423;28;20096;-84
2023/05/14 00:37:22;;;;;;;13.20;11.23;;;12.60;99.90;;;;;;4998806;28;20049;-81
2023/05/14 00:39:47;;;;;;;14.25;10.13;;;12.60;99.90;;;;;;5015843;28;20069;-81
2023/05/14 00:42:13;;;;;;;17.15;10.52;;;12.60;99.90;;;;;;4982559;28;20156;-79
2023/05/14 00:44:39;;;;;;;15.27;10.98;;;12.50;99.90;;;;;;4998275;28;20057;-79
2023/05/14 00:47:05;;;;;;;16.92;11.65;;;12.60;99.90;;;;;;5015977;28;20077;-77
2023/05/14 00:49:31;;;;;;;15.07;11.60;;;12.50;99.90;;;;;;5015852;28;20053;-78
2023/05/14 00:51:59;;;;;;;14.43;10.27;;;12.50;99.90;;;;;;4982137;28;20050;-84
2023/05/14 00:54:25;;;;;;;15.40;10.98;;;12.50;99.90;;;;;;5015854;28;20046;-79
2023/05/14 00:56:52;;;;;;;14.57;10.48;;;12.50;99.90;;;;;;5015888;28;20147;-80
2023/05/14 00:59:18;;;;;;;14.40;12.32;;;12.50;99.90;;;;;;5016288;28;20056;-78
2023/05/14 01:01:44;;;;;;;12.10;10.70;;;12.50;99.90;;;;;;5015811;28;20049;-79
2023/05/14 01:04:11;;;;;;;14.90;10.35;;;12.50;99.90;;;;;;4999010;28;20045;-81
2023/05/14 01:07:14;;;;;;;14.27;10.27;;;12.50;99.90;;;;;;5015737;28;20057;-79
2023/05/14 01:09:53;;;;;;;15.52;11.55;;;12.40;99.90;;;;;;5015980;28;20053;-80
2023/05/14 01:12:34;;;;;;;13.07;9.25;;;12.40;99.90;;;;;;5015661;28;20054;-79
2023/05/14 01:15:23;;;;;;;15.60;10.93;;;12.40;99.90;;;;;;5015542;28;20034;-79
2023/05/14 01:18:06;;;;;;;18.23;11.27;;;12.30;99.90;;;;;;5015575;28;20129;-79
2023/05/14 01:20:32;;;;;;;14.15;10.75;;;12.30;99.90;;;;;;5015968;28;20112;-76
2023/05/14 01:22:58;;;;;;;13.82;11.23;;;12.30;99.90;;;;;;5014998;28;20459;-77
2023/05/14 01:25:24;;;;;;;14.15;9.95;;;12.20;99.90;;;;;;5016299;28;20049;-76
2023/05/14 01:28:16;;;;;;;13.32;10.43;;;12.20;99.90;;;;;;5015703;28;20125;-73
2023/05/14 01:30:45;;;;;;;16.70;10.98;;;12.20;99.90;;;;;;5015188;28;20048;-73
2023/05/14 01:33:13;;;;;;;14.35;9.18;;;12.20;99.90;;;;;;5014996;28;20041;-74
2023/05/14 01:35:39;;;;;;;13.88;10.18;;;12.10;99.90;;;;;;5015604;28;20045;-74
2023/05/14 01:38:08;;;;;;;13.38;10.13;;;12.10;99.90;;;;;;5017346;28;20106;-77
2023/05/14 01:40:35;;;;;;;15.07;10.23;;;12.20;99.90;;;;;;4999255;28;20069;-76
2023/05/14 01:43:02;;;;;;;16.90;11.30;;;12.10;99.90;;;;;;5016644;28;20363;-78
2023/05/14 01:45:29;;;;;;;17.25;11.68;;;12.10;99.90;;;;;;5015875;28;20057;-77
2023/05/14 01:47:56;;;;;;;13.95;10.38;;;12.10;99.90;;;;;;5016906;28;20076;-73
2023/05/14 01:50:22;;;;;;;14.00;10.25;;;12.00;99.90;;;;;;5016431;28;20133;-75
2023/05/14 01:52:48;;;;;;;11.02;9.65;;;12.00;99.90;;;;;;4997977;28;20050;-75
2023/05/14 01:55:14;;;;;;;13.65;10.45;;;12.00;99.90;;;;;;5015647;28;20064;-74
2023/05/14 01:57:40;;;;;;;14.00;10.82;;;12.00;99.90;;;;;;5015441;28;20085;-75
2023/05/14 02:00:06;;;;;;;12.07;9.93;;;12.00;99.90;;;;;;5016541;28;20053;-75
2023/05/14 02:02:32;;;;;;;14.68;9.18;;;12.00;99.90;;;;;;5015327;28;20050;-75
2023/05/14 02:04:58;;;;;;;15.27;9.88;;;12.00;99.90;;;;;;5014694;28;20474;-75
2023/05/14 02:07:23;;;;;;;13.20;10.35;;;12.00;99.90;;;;;;5014593;28;20092;-75
2023/05/14 02:09:49;;;;;;;13.48;9.38;;;12.00;99.90;;;;;;5014483;28;20045;-75
2023/05/14 02:12:15;;;;;;;12.88;11.00;;;12.00;99.90;;;;;;4997160;28;20056;-75
2023/05/14 02:14:41;;;;;;;19.38;10.82;;;12.00;99.90;;;;;;5014697;28;20053;-75
2023/05/14 02:17:07;;;;;;;15.73;10.10;;;11.90;99.90;;;;;;5015011;28;20095;-75
2023/05/14 02:19:32;;;;;;;16.05;11.32;;;11.90;99.90;;;;;;5014612;28;20046;-75
2023/05/14 02:21:59;;;;;;;12.93;10.88;;;11.90;99.90;;;;;;5014717;28;20043;-75
2023/05/14 02:24:25;;;;;;;15.57;10.10;;;12.40;99.90;;;;;;5014184;28;20045;-75
2023/05/14 02:26:51;;;;;;;16.30;12.15;;;11.90;99.90;;;;;;5014020;28;20065;-75
2023/05/14 02:29:17;;;;;;;14.57;11.52;;;11.80;99.90;;;;;;5014458;28;20064;-75
2023/05/14 02:31:42;;;;;;;15.98;10.25;;;11.90;99.90;;;;;;5013455;28;20046;-75
2023/05/14 02:34:09;;;;;;;20.60;11.45;;;11.90;99.90;;;;;;5014257;28;20073;-74
2023/05/14 02:36:34;;;;;;;15.55;10.02;;;11.80;99.90;;;;;;5013901;28;20471;-75
2023/05/14 02:39:00;;;;;;;16.67;10.25;;;11.80;99.90;;;;;;5013921;28;20049;-75
2023/05/14 02:41:26;;;;;;;14.73;10.70;;;11.70;99.90;;;;;;5013835;28;20124;-75
2023/05/14 02:43:53;;;;;;;14.00;10.18;;;11.70;99.90;;;;;;5014456;28;20041;-76
2023/05/14 02:46:19;;;;;;;12.57;8.63;;;11.60;99.90;;;;;;5013611;28;20050;-75
2023/05/14 02:48:44;;;;;;;14.35;8.85;;;11.60;99.90;;;;;;5013772;28;20108;-75
2023/05/14 02:51:11;;;;;;;14.38;9.10;;;11.60;99.90;;;;;;5013669;28;20371;-75
2023/05/14 02:53:36;;;;;;;11.00;9.68;;;11.60;99.90;;;;;;5013532;28;20470;-75
2023/05/14 02:56:02;;;;;;;11.40;8.55;;;11.60;99.90;;;;;;5014234;28;20072;-75
2023/05/14 02:58:28;;;;;;;14.63;10.70;;;11.60;99.90;;;;;;5013589;28;20425;-75
2023/05/14 03:00:54;;;;;;;16.33;10.88;;;11.50;99.90;;;;;;5013593;28;20124;-75
2023/05/14 03:03:19;;;;;;;15.82;10.25;;;11.50;99.90;;;;;;5013488;28;20042;-75
2023/05/14 03:05:45;;;;;;;13.65;10.60;;;11.50;99.90;;;;;;5013853;28;20467;-75
2023/05/14 03:08:11;;;;;;;13.90;11.90;;;11.50;99.90;;;;;;5012991;28;20043;-75
2023/05/14 03:10:37;;;;;;;14.38;10.40;;;11.50;99.90;;;;;;5013797;28;20050;-75
2023/05/14 03:13:02;;;;;;;14.55;10.13;;;11.50;99.90;;;;;;4995772;28;20081;-75
2023/05/14 03:15:28;;;;;;;16.23;11.95;;;11.50;99.90;;;;;;5013558;28;20050;-75
2023/05/14 03:17:54;;;;;;;16.33;10.43;;;11.60;99.90;;;;;;5013689;28;20357;-75
2023/05/14 03:20:19;;;;;;;15.15;9.77;;;11.50;99.90;;;;;;4996484;28;20077;-75
2023/05/14 03:22:45;;;;;;;14.65;9.63;;;11.60;99.90;;;;;;5013703;28;20497;-75
2023/05/14 03:25:11;;;;;;;15.13;11.98;;;11.60;99.90;;;;;;5013629;28;20487;-75
2023/05/14 03:27:37;;;;;;;13.10;10.35;;;11.20;99.90;;;;;;5013287;28;20052;-75
2023/05/14 03:30:03;;;;;;;18.05;12.35;;;11.60;99.90;;;;;;5013685;28;20509;-75
2023/05/14 03:32:29;;;;;;;16.10;11.20;;;11.70;99.90;;;;;;5013107;28;20081;-75
2023/05/14 03:34:55;;;;;;;7.65;6.80;;;11.70;99.90;;;;;;5013332;28;20081;-75
2023/05/14 03:37:20;;;;;;;15.25;10.05;;;11.70;99.90;;;;;;4995439;28;20064;-75
2023/05/14 03:39:46;;;;;;;15.85;11.75;;;10.70;99.90;;;;;;4995635;28;20046;-75
2023/05/14 03:42:12;;;;;;;15.73;11.95;;;11.70;99.90;;;;;;5011752;28;20092;-75
2023/05/14 03:44:37;;;;;;;14.98;10.57;;;11.70;99.90;;;;;;5013085;28;20058;-75
2023/05/14 03:47:03;;;;;;;16.35;11.20;;;11.70;99.90;;;;;;5012823;28;20495;-75
2023/05/14 03:49:29;;;;;;;21.85;11.23;;;11.70;99.90;;;;;;5012789;28;20052;-75
2023/05/14 03:51:56;;;;;;;19.02;10.63;;;11.70;99.90;;;;;;4995975;28;20049;-75
2023/05/14 03:54:21;;;;;;;13.65;9.98;;;11.70;99.90;;;;;;4995294;28;20137;-75
2023/05/14 03:56:47;;;;;;;12.43;9.25;;;11.70;99.90;;;;;;5012801;28;20056;-75
2023/05/14 03:59:13;;;;;;;17.98;11.38;;;11.70;99.90;;;;;;5012764;28;20436;-75
2023/05/14 04:01:38;;;;;;;15.63;11.20;;;11.70;99.90;;;;;;5012853;28;20196;-75
2023/05/14 04:04:04;;;;;;;16.08;10.98;;;11.70;99.90;;;;;;4995544;28;20045;-75
2023/05/14 04:06:30;;;;;;;15.85;11.70;;;11.70;99.90;;;;;;5012718;28;20057;-75
2023/05/14 04:08:55;;;;;;;19.98;10.80;;;11.70;99.90;;;;;;5012785;28;20046;-75
2023/05/14 04:11:21;;;;;;;13.15;8.52;;;11.80;99.90;;;;;;5012579;28;20169;-74
2023/05/14 04:13:47;;;;;;;16.42;11.07;;;11.80;99.90;;;;;;5012545;28;20049;-75
2023/05/14 04:16:12;;;;;;;16.35;10.85;;;11.80;99.90;;;;;;5012566;28;20091;-75
2023/05/14 04:18:38;;;;;;;16.67;11.05;;;11.80;99.90;;;;;;5012547;28;20050;-75
2023/05/14 04:21:04;;;;;;;18.27;11.52;;;11.90;99.90;;;;;;5012225;28;20048;-75
2023/05/14 04:23:30;;;;;;;15.07;11.07;;;11.90;99.90;;;;;;5012415;28;20042;-75
2023/05/14 04:25:57;;;;;;;14.55;11.40;;;11.80;99.90;;;;;;5012918;28;20049;-75
2023/05/14 04:28:22;;;;;;;15.95;11.93;;;11.90;99.90;;;;;;5012430;28;20125;-74
2023/05/14 04:30:48;;;;;;;15.77;11.30;;;11.90;99.90;;;;;;4979024;28;20077;-75
2023/05/14 04:33:14;;;;;;;13.00;11.07;;;11.90;99.90;;;;;;5012370;28;20100;-75
2023/05/14 04:35:40;;;;;;;13.68;10.55;;;12.00;99.90;;;;;;5012867;28;20479;-75
2023/05/14 04:38:06;;;;;;;18.02;11.95;;;12.60;99.90;;;;;;5012458;28;20077;-75
2023/05/14 04:40:32;;;;;;;22.00;11.35;;;12.00;99.90;;;;;;5012365;28;20471;-74
2023/05/14 04:42:57;;;;;;;14.32;10.25;;;12.10;99.90;;;;;;5012464;28;20129;-75
2023/05/14 04:45:23;;;;;;;16.77;10.50;;;12.10;99.90;;;;;;5012022;28;20581;-74
2023/05/14 04:47:49;;;;;;;20.48;11.15;;;12.00;99.90;;;;;;5012680;28;20049;-75
2023/05/14 04:50:15;;;;;;;19.33;12.25;;;12.00;99.90;;;;;;5012361;28;20052;-75
2023/05/14 04:52:41;;;;;;;19.90;11.63;;;11.90;99.90;;;;;;4995045;28;20057;-75
2023/05/14 04:55:07;;;;;;;17.15;11.18;;;11.90;99.90;;;;;;5015223;28;20049;-74
2023/05/14 04:57:33;;;;;;;15.68;11.90;;;11.90;99.90;;;;;;5016021;28;20045;-75
2023/05/14 04:59:58;;;;;;;23.30;12.27;;;11.90;99.90;;;;;;5016243;28;20447;-74
2023/05/14 05:02:24;;;;;;;19.02;11.55;;;11.90;99.90;;;;;;5016415;28;20045;-74
2023/05/14 05:04:50;;;;;;;17.88;11.80;;;11.90;99.90;;;;;;5016517;28;20459;-78
2023/05/14 05:07:15;;;;;;;17.42;12.00;;;11.90;99.90;;;;;;5001121;28;20176;-75
2023/05/14 05:09:42;;;;;;;20.95;12.82;;;11.90;99.90;;;;;;5000196;28;20124;-76
2023/05/14 05:12:09;;;;;;;19.70;12.10;;;11.90;99.90;;;;;;5017754;28;20089;-77
2023/05/14 05:14:34;;;;;;;20.88;12.10;;;11.90;99.90;;;;;;5017471;28;20077;-77
2023/05/14 05:17:00;;;;;;;16.02;11.43;;;11.80;99.90;;;;;;5015686;28;20057;-79
2023/05/14 05:19:26;;;;;;;18.63;13.00;;;11.90;99.90;;;;;;4998624;28;20053;-78
2023/05/14 05:21:52;;;;;;;19.95;12.45;;;11.80;99.90;;;;;;5015945;28;20046;-78
2023/05/14 05:24:17;;;;;;;25.58;12.95;;;11.90;99.90;;;;;;4998038;28;20054;-78
2023/05/14 05:26:43;;;;;;;15.75;11.98;;;11.90;99.90;;;;;;5015370;28;20104;-80
2023/05/14 05:29:09;;;;;;;16.92;11.35;;;11.90;99.90;;;;;;5016155;28;20046;-79
2023/05/14 05:31:35;;;;;;;18.52;11.43;;;12.00;99.90;;;;;;5015722;28;20064;-80
2023/05/14 05:34:01;;;;;;;18.45;11.55;;;12.00;99.90;;;;;;4998344;28;20618;-80
2023/05/14 05:36:27;;;;;;;14.65;10.63;;;12.10;99.90;;;;;;5015544;28;20089;-81
2023/05/14 05:38:54;;;;;;;19.27;12.45;;;12.10;99.90;;;;;;4998687;28;20046;-81
2023/05/14 05:41:21;;;;;;;17.00;11.80;;;12.20;99.90;;;;;;5015516;28;20128;-80
2023/05/14 05:43:46;;;;;;;17.23;10.73;;;12.30;99.90;;;;;;5015028;28;20451;-80
2023/05/14 05:46:12;;;;;;;18.23;11.48;;;12.40;99.90;;;;;;5015486;28;20097;-80
2023/05/14 05:48:38;;;;;;;17.52;11.63;;;12.50;99.90;;;;;;5014699;28;20054;-80
2023/05/14 05:51:03;;;;;;;15.38;11.10;;;12.60;99.90;;;;;;5014760;28;20046;-80
2023/05/14 05:53:29;;;;;;;19.15;11.20;;;12.70;99.90;;;;;;4997504;28;20037;-79
2023/05/14 05:55:55;;;;;;;18.17;10.88;;;12.80;99.90;;;;;;5015382;28;20052;-82
2023/05/14 05:58:20;;;;;;;15.05;10.70;;;13.00;99.90;;;;;;5014846;28;20447;-82
2023/05/14 06:00:46;;;;;;;17.60;11.25;;;13.10;99.90;;;;;;5014838;28;20081;-83
2023/05/14 06:03:12;;;;;;;18.08;11.32;;;13.10;99.90;;;;;;5014767;28;20050;-82
2023/05/14 06:05:38;;;;;;;11.88;10.13;;;13.20;99.90;;;;;;5013721;28;20053;-82
2023/05/14 06:08:05;;;;;;;16.98;10.88;;;13.40;99.90;;;;;;5014608;28;20526;-83
2023/05/14 06:10:31;;;;;;;14.88;11.02;;;13.50;99.90;;;;;;5014581;28;20103;-83
2023/05/14 06:12:56;;;;;;;17.65;10.77;;;13.60;99.90;;;;;;5014506;28;20054;-82
2023/05/14 06:15:22;;;;;;;13.52;10.63;;;13.70;99.90;;;;;;5014382;28;20115;-80
2023/05/14 06:17:48;;;;;;;17.83;11.00;;;13.80;99.90;;;;;;5014408;28;20081;-82
2023/05/14 06:20:14;;;;;;;15.77;10.45;;;13.70;99.90;;;;;;4997298;28;20058;-80
2023/05/14 06:22:39;;;;;;;15.68;10.02;;;13.80;99.90;;;;;;4980506;28;20053;-81
2023/05/14 06:25:05;;;;;;;15.82;9.77;;;13.90;99.90;;;;;;4997534;28;20056;-82
2023/05/14 06:27:31;;;;;;;16.00;9.55;;;14.10;99.90;;;;;;5014328;28;20054;-82
2023/05/14 06:29:57;;;;;;;17.63;9.50;;;14.30;99.90;;;;;;5014220;28;20581;-79
2023/05/14 06:32:23;;;;;;;15.20;9.60;;;14.40;99.90;;;;;;4996857;28;20058;-82
2023/05/14 06:34:49;;;;;;;11.30;8.30;;;14.50;99.90;;;;;;5013786;28;20096;-82
2023/05/14 06:37:14;;;;;;;10.60;7.68;;;15.10;99.90;;;;;;5013722;28;20061;-80
2023/05/14 06:39:47;;;;;;;16.85;7.75;;;16.00;99.90;;;;;;4996731;28;20126;-81
2023/05/14 06:42:12;;;;;;;10.82;7.50;;;16.40;99.90;;;;;;4981901;28;20053;-80
2023/05/14 06:44:38;;;;;;;13.50;6.70;;;16.60;99.90;;;;;;5013642;28;20116;-80
2023/05/14 06:47:07;;;;;;;7.97;5.88;;;16.90;99.90;;;;;;4996748;28;20490;-80
2023/05/14 06:49:33;;;;;;;12.15;6.45;;;17.20;99.90;;;;;;4997083;28;20115;-80
2023/05/14 06:51:59;;;;;;;14.02;6.82;;;17.30;99.90;;;;;;4996425;28;20046;-80
2023/05/14 06:54:25;;;;;;;11.93;6.68;;;17.40;99.90;;;;;;4996282;28;20053;-81
2023/05/14 06:56:50;;;;;;;9.55;6.68;;;17.30;99.90;;;;;;5014218;28;20048;-81
2023/05/14 06:59:16;;;;;;;10.73;5.90;;;16.90;99.90;;;;;;5013758;28;20487;-81
2023/05/14 07:01:42;;;;;;;11.23;6.35;;;17.00;99.90;;;;;;5013799;28;20045;-82
2023/05/14 07:04:08;;;;;;;12.85;6.25;;;17.10;99.90;;;;;;5013837;28;20046;-82
2023/05/14 07:06:34;;;;;;;10.77;6.90;;;17.00;99.90;;;;;;4979917;28;20041;-81
2023/05/14 07:09:00;;;;;;;12.15;5.82;;;16.80;99.90;;;;;;4996272;28;20121;-72
2023/05/14 07:11:26;;;;;;;10.98;6.38;;;17.00;99.90;;;;;;4996175;28;20053;-76
2023/05/14 07:13:51;;;;;;;9.70;5.35;;;17.30;99.90;;;;;;4995733;28;20045;-87
2023/05/14 07:16:17;;;;;;;10.88;6.00;;;17.80;99.90;;;;;;4996178;28;20060;-79
2023/05/14 07:18:44;;;;;;;6.75;4.93;;;18.20;99.90;;;;;;4979946;28;20355;-79
2023/05/14 07:21:10;;;;;;;12.43;5.68;;;18.30;99.90;;;;;;4996675;28;20088;-84
2023/05/14 07:23:37;;;;;;;8.52;5.30;;;18.30;99.90;;;;;;5013326;28;20116;-76
2023/05/14 07:26:04;;;;;;;7.63;4.97;;;18.90;99.90;;;;;;5013427;28;20058;-81
2023/05/14 07:28:30;;;;;;;7.80;5.40;;;18.80;99.90;;;;;;5013519;28;20049;-80
2023/05/14 07:30:56;;;;;;;8.73;5.82;;;18.40;99.90;;;;;;5013510;28;20064;-86
2023/05/14 07:33:23;;;;;;;10.75;5.72;;;18.20;99.90;;;;;;4996905;28;20050;-79
2023/05/14 07:35:49;;;;;;;6.90;5.30;;;18.50;99.90;;;;;;5013914;28;20065;-78
2023/05/14 07:38:14;;;;;;;11.25;5.90;;;18.70;99.90;;;;;;5013553;28;20049;-77
2023/05/14 07:40:40;;;;;;;9.00;5.72;;;19.10;99.90;;;;;;5013007;28;20049;-76
2023/05/14 07:43:06;;;;;;;9.65;5.60;;;19.30;99.90;;;;;;5013341;28;20046;-73
2023/05/14 07:45:31;;;;;;;12.85;6.20;;;19.30;99.90;;;;;;5013261;28;20081;-84
2023/05/14 07:47:57;;;;;;;11.35;6.07;;;19.40;99.90;;;;;;5013328;28;20052;-74
2023/05/14 07:50:23;;;;;;;15.43;7.03;;;19.20;99.90;;;;;;5020937;28;20136;-73
2023/05/14 07:52:48;;;;;;;12.60;6.65;;;19.20;99.90;;;;;;5025291;28;20053;-74
2023/05/14 07:55:14;;;;;;;11.35;6.40;;;19.00;99.90;;;;;;5013244;28;20038;-74
2023/05/14 07:57:40;;;;;;;9.30;6.80;;;19.00;99.90;;;;;;5013453;28;20479;-74
2023/05/14 08:00:07;;;;;;;11.85;6.13;;;19.10;99.90;;;;;;5012929;28;20103;-76
2023/05/14 08:02:32;;;;;;;8.02;5.80;;;19.20;99.90;;;;;;5013093;28;20124;-75
2023/05/14 08:04:58;;;;;;;9.18;6.43;;;19.30;99.90;;;;;;4996086;28;20125;-84
2023/05/14 08:07:26;;;;;;;13.80;7.18;;;19.10;99.90;;;;;;5013611;28;20064;-83
2023/05/14 08:09:51;;;;;;;9.43;6.25;;;19.20;99.90;;;;;;5013359;28;20057;-83
2023/05/14 08:12:17;;;;;;;9.02;5.38;;;19.30;99.90;;;;;;4995593;28;20058;-82
2023/05/14 08:14:43;;;;;;;10.05;5.72;;;19.20;99.90;;;;;;4996083;28;20065;-84
2023/05/14 08:17:08;;;;;;;9.80;5.65;;;19.70;99.90;;;;;;4999391;28;20092;-82
2023/05/14 08:19:34;;;;;;;7.15;5.55;;;20.20;99.90;;;;;;5001986;28;20135;-77
2023/05/14 08:22:00;;;;;;;8.32;5.70;;;19.90;99.90;;;;;;5012765;28;20485;-75
2023/05/14 08:24:25;;;;;;;7.78;5.03;;;19.80;99.90;;;;;;5012766;28;20052;-75
2023/05/14 08:26:51;;;;;;;8.70;5.75;;;19.50;99.90;;;;;;4998875;28;20080;-80
2023/05/14 08:29:17;;;;;;;6.13;5.53;;;19.50;99.90;;;;;;5020304;28;20096;-81
2023/05/14 08:31:43;;;;;;;9.98;6.45;;;19.40;99.90;;;;;;5003012;28;20049;-73
2023/05/14 08:34:09;;;;;;;7.65;5.32;;;19.10;99.90;;;;;;5018217;28;20129;-75
2023/05/14 08:36:34;;;;;;;9.05;5.93;;;19.80;99.90;;;;;;5016457;28;20072;-81
2023/05/14 08:39:00;;;;;;;13.55;5.78;;;20.50;99.90;;;;;;5016759;28;20054;-79
2023/05/14 08:41:26;;;;;;;8.98;5.32;;;21.20;99.90;;;;;;5016631;28;20044;-77
2023/05/14 08:44:24;;;;;;;11.27;6.07;;;22.00;99.90;;;;;;4998571;28;20581;-80
2023/05/14 08:46:52;;;;;;;8.43;5.75;;;22.50;99.90;;;;;;4983349;28;20053;-76
2023/05/14 08:49:35;;;;;;;8.93;6.05;;;22.60;99.90;;;;;;4998852;28;20073;-76
2023/05/14 08:52:01;;;;;;;9.02;6.30;;;22.50;99.90;;;;;;5015885;28;20382;-75
2023/05/14 08:54:27;;;;;;;10.00;5.25;;;22.20;99.90;;;;;;4982083;28;20045;-75
2023/05/14 08:56:53;;;;;;;11.18;5.95;;;22.10;99.90;;;;;;5016463;28;20072;-76
2023/05/14 08:59:19;;;;;;;7.38;5.07;;;22.10;99.90;;;;;;5016195;28;20478;-84
2023/05/14 09:01:53;;;;;;;10.00;5.72;;;22.10;99.90;;;;;;4998873;28;20057;-81
2023/05/14 09:04:21;;;;;;;9.98;5.60;;;21.80;99.90;;;;;;5016360;28;20053;-82
2023/05/14 09:06:49;;;;;;;8.32;5.65;;;22.10;99.90;;;;;;5015860;28;20046;-86
2023/05/14 09:09:15;;;;;;;10.43;5.50;;;22.00;99.60;;;;;;4982410;28;20056;-76
2023/05/14 09:11:41;;;;;;;8.68;6.95;;;21.80;99.90;;;;;;5016349;28;20097;-77
2023/05/14 09:14:08;;;;;;;8.65;5.60;;;22.00;99.40;;;;;;4999038;28;20046;-73
2023/05/14 09:16:35;;;;;;;12.18;6.32;;;21.90;99.90;;;;;;5015561;28;20061;-73
2023/05/14 09:19:02;;;;;;;9.55;6.38;;;22.20;99.90;;;;;;5015748;28;20054;-76
2023/05/14 09:21:28;;;;;;;9.30;6.80;;;22.40;99.90;;;;;;5015144;28;20495;-79
2023/05/14 09:23:56;;;;;;;11.27;7.95;;;22.30;99.90;;;;;;5015477;28;20048;-79
2023/05/14 09:26:25;;;;;;;9.48;6.50;;;22.20;99.90;;;;;;4997720;28;20053;-79
2023/05/14 09:28:59;;;;;;;12.25;8.02;;;22.20;99.90;;;;;;4998375;28;20049;-77
2023/05/14 09:31:25;;;;;;;10.30;6.60;;;22.10;99.90;;;;;;5015534;28;20471;-77
2023/05/14 09:33:51;;;;;;;10.15;7.15;;;22.50;99.90;;;;;;5015797;28;20125;-76
2023/05/14 09:36:17;;;;;;;8.32;7.38;;;22.60;99.30;;;;;;5015786;28;20128;-76
2023/05/14 09:38:43;;;;;;;12.25;7.07;;;22.60;99.40;;;;;;4998570;28;20062;-77
2023/05/14 09:41:08;;;;;;;9.85;7.53;;;22.20;98.80;;;;;;5015245;28;20134;-77
2023/05/14 09:43:34;;;;;;;17.38;8.43;;;22.70;99.30;;;;;;4998154;28;20111;-77
2023/05/14 09:46:00;;;;;;;13.55;8.02;;;23.00;98.70;;;;;;4997582;28;20069;-76
2023/05/14 09:48:26;;;;;;;11.07;8.05;;;23.30;98.00;;;;;;4998431;28;20459;-77
2023/05/14 09:50:51;;;;;;;12.73;7.38;;;23.60;97.20;;;;;;4998237;28;20046;-76
2023/05/14 09:53:17;;;;;;;10.35;7.47;;;23.30;96.80;;;;;;5014425;28;20120;-76
2023/05/14 09:55:44;;;;;;;9.68;8.25;;;23.30;96.50;;;;;;5014915;28;20132;-76
2023/05/14 09:58:10;;;;;;;11.30;7.30;;;23.30;96.50;;;;;;5014856;28;20053;-76
2023/05/14 10:00:37;;;;;;;8.88;7.82;;;23.60;96.50;;;;;;5014423;28;20041;-76
2023/05/14 10:03:06;;;;;;;10.73;7.82;;;23.40;96.20;;;;;;4997513;28;20092;-77
2023/05/14 10:05:36;;;;;;;12.35;8.00;;;23.80;95.20;;;;;;5014671;28;20467;-77
2023/05/14 10:08:08;;;;;;;14.13;8.00;;;24.00;95.70;;;;;;5014622;28;20041;-77
2023/05/14 10:10:36;;;;;;;10.05;8.50;;;24.50;94.70;;;;;;4997556;28;20089;-77
2023/05/14 10:13:04;;;;;;;9.73;7.55;;;24.50;93.80;;;;;;5014588;28;20042;-77
2023/05/14 10:15:39;;;;;;;9.57;8.25;;;24.30;94.30;;;;;;5014526;28;20496;-76
2023/05/14 10:18:09;;;;;;;8.15;7.30;;;24.50;93.60;;;;;;4981596;28;20049;-77
2023/05/14 10:20:37;;;;;;;9.82;8.52;;;25.00;93.00;;;;;;5014628;28;20088;-76
2023/05/14 10:23:04;;;;;;;12.70;7.85;;;25.20;92.80;;;;;;4997551;28;20129;-76
2023/05/14 10:25:30;;;;;;;9.88;8.13;;;25.30;92.60;;;;;;5014387;28;20084;-77
2023/05/14 10:27:56;;;;;;;8.55;6.85;;;25.00;91.60;;;;;;5014736;28;20045;-77
2023/05/14 10:30:22;;;;;;;8.30;7.53;;;24.80;91.70;;;;;;4997045;28;20403;-77
2023/05/14 10:32:48;;;;;;;11.60;7.53;;;24.60;91.80;;;;;;5014133;28;20057;-77
2023/05/14 10:35:21;;;;;;;7.57;6.78;;;24.50;91.70;;;;;;5014435;28;20132;-77
2023/05/14 10:37:50;;;;;;;9.00;7.75;;;24.40;91.00;;;;;;5014071;28;20129;-77
2023/05/14 10:40:17;;;;;;;8.43;6.25;;;24.20;91.00;;;;;;4997423;28;20125;-76
2023/05/14 10:42:45;;;;;;;7.03;6.32;;;24.40;90.90;;;;;;5013956;28;20482;-76
2023/05/14 10:45:12;;;;;;;7.30;6.10;;;24.10;90.40;;;;;;5013949;28;20058;-77
2023/05/14 10:47:41;;;;;;;7.25;5.95;;;23.90;90.10;;;;;;5013885;28;20492;-77
2023/05/14 10:50:09;;;;;;;6.97;6.38;;;23.90;89.50;;;;;;5013893;28;20057;-78
2023/05/14 10:52:36;;;;;;;6.95;5.18;;;23.60;85.90;;;;;;5013824;28;20072;-78
2023/05/14 10:55:11;;;;;;;6.97;5.20;;;23.50;88.30;;;;;;5014176;28;20046;-77
2023/05/14 10:57:39;;;;;;;6.63;5.25;;;23.70;86.50;;;;;;4997043;28;20434;-76
2023/05/14 11:00:09;;;;;;;9.23;5.53;;;23.70;87.20;;;;;;5013708;28;20057;-76
2023/05/14 11:02:43;;;;;;;7.60;5.72;;;23.50;81.10;;;;;;5013886;28;20068;-76
2023/05/14 11:05:16;;;;;;;7.25;4.70;;;23.30;82.30;;;;;;5013732;28;20108;-77
2023/05/14 11:07:49;;;;;;;5.50;4.97;;;23.50;84.10;;;;;;5013595;28;20132;-76
2023/05/14 11:10:16;;;;;;;8.18;5.47;;;23.30;83.40;;;;;;5013520;28;20042;-77
2023/05/14 11:12:44;;;;;;;6.13;4.90;;;23.30;85.00;;;;;;5013095;28;20422;-76
2023/05/14 11:15:12;;;;;;;6.70;5.70;;;23.00;86.50;;;;;;5013150;28;20507;-77
2023/05/14 11:17:40;;;;;;;7.05;5.10;;;22.90;85.10;;;;;;5013358;28;20046;-75
2023/05/14 11:20:07;;;;;;;4.68;4.28;;;23.00;86.00;;;;;;4996109;28;20056;-77
2023/05/14 11:22:38;;;;;;;6.07;5.25;;;23.10;86.50;;;;;;5013245;28;20209;-75
2023/05/14 11:25:05;;;;;;;7.43;4.72;;;22.80;82.90;;;;;;5013606;28;20049;-77
2023/05/14 11:27:33;;;;;;;4.80;4.30;;;23.00;81.80;;;;;;4996405;28;20116;-76
2023/05/14 11:29:59;;;;;;;4.65;4.07;;;23.00;82.40;;;;;;5013680;28;20060;-77
2023/05/14 11:32:26;;;;;;;5.10;4.60;;;23.00;84.00;;;;;;4996021;28;20072;-76
2023/05/14 11:34:52;;;;;;;5.93;4.45;;;23.30;81.40;;;;;;4996135;28;20046;-76
2023/05/14 11:37:19;;;;;;;6.78;5.15;;;23.30;82.70;;;;;;5013523;28;20131;-76
2023/05/14 11:39:50;;;;;;;5.40;4.80;;;23.20;82.20;;;;;;5013174;28;20102;-76
2023/05/14 11:42:18;;;;;;;11.10;5.73;;;23.40;82.70;;;;;;4995840;28;20422;-76
2023/05/14 11:44:47;;;;;;;5.72;4.80;;;23.30;82.00;;;;;;5013015;28;20398;-75
2023/05/14 11:47:14;;;;;;;6.30;4.80;;;23.50;81.40;;;;;;5014016;28;20116;-74
2023/05/14 11:49:40;;;;;;;8.52;5.00;;;23.50;80.40;;;;;;5014546;28;20053;-76
2023/05/14 11:52:12;;;;;;;5.75;4.72;;;23.50;82.00;;;;;;5013687;28;20593;-76
2023/05/14 11:54:39;;;;;;;6.65;4.75;;;23.60;81.70;;;;;;5013840;28;20125;-75
2023/05/14 11:57:12;;;;;;;5.25;4.75;;;23.60;81.40;;;;;;5013251;28;20054;-76
2023/05/14 11:59:39;;;;;;;5.68;5.10;;;23.70;79.50;;;;;;5013745;28;20068;-75
2023/05/14 12:02:09;;;;;;;7.32;5.43;;;23.70;80.50;;;;;;5013073;28;20046;-76
2023/05/14 12:04:35;;;;;;;7.93;4.72;;;23.60;79.90;;;;;;5012501;28;20053;-76
2023/05/14 12:07:10;;;;;;;6.85;4.97;;;23.80;81.30;;;;;;5013053;28;20042;-76
2023/05/14 12:09:38;;;;;;;5.03;4.63;;;23.80;79.70;;;;;;5013006;28;20045;-76
2023/05/14 12:12:11;;;;;;;6.03;4.43;;;23.60;80.60;;;;;;5013467;28;20045;-76
2023/05/14 12:14:41;;;;;;;6.60;4.10;;;23.60;78.20;;;;;;5013504;28;20100;-76
2023/05/14 12:17:18;;;;;;;4.57;4.15;;;23.90;79.90;;;;;;4995662;28;20368;-76
2023/05/14 12:19:46;;;;;;;4.60;4.20;;;24.10;78.20;;;;;;5012701;28;20049;-76
2023/05/14 12:22:17;;;;;;;7.28;4.00;;;23.90;77.50;;;;;;4995333;28;20046;-77
2023/05/14 12:24:54;;;;;;;4.85;4.35;;;23.90;79.60;;;;;;4995582;28;20136;-76
2023/05/14 12:27:28;;;;;;;4.35;3.60;;;23.70;76.50;;;;;;4995395;28;20065;-77
2023/05/14 12:30:05;;;;;;;5.35;4.07;;;23.90;79.90;;;;;;5012772;28;20092;-76
2023/05/14 12:32:34;;;;;;;4.70;3.63;;;23.90;76.70;;;;;;5012981;28;20060;-76
2023/05/14 12:35:00;;;;;;;4.72;4.13;;;23.90;78.60;;;;;;5012475;28;20494;-76